createdAt,value
2023-04-24T00:01:56.202Z,95856.97
2023-04-24T00:04:23.060Z,95862.22
2023-04-24T00:06:54.940Z,95851.47
2023-04-24T00:09:21.387Z,95861.56
2023-04-24T00:11:47.794Z,95862.41
2023-04-24T00:14:14.222Z,95856.72
2023-04-24T00:16:40.836Z,95862.19
2023-04-24T00:19:07.630Z,95851.69
2023-04-24T00:21:34.765Z,95846.41
2023-04-24T00:24:01.199Z,95850.03
2023-04-24T00:26:27.650Z,95846.41
2023-04-24T00:28:54.104Z,95846.22
2023-04-24T00:31:20.662Z,95837.72
2023-04-24T00:33:47.033Z,95832.63
2023-04-24T00:36:13.455Z,95831.63
2023-04-24T00:38:39.864Z,95839.06
2023-04-24T00:41:06.234Z,95838.88
2023-04-24T00:43:34.712Z,95836.91
2023-04-24T00:46:03.109Z,95836.25
2023-04-24T00:48:29.813Z,95839.72
2023-04-24T00:50:56.352Z,95836.47
2023-04-24T00:53:23.132Z,95843.94
2023-04-24T00:55:50.954Z,95839.06
2023-04-24T00:58:17.454Z,95829.59
2023-04-24T01:00:44.890Z,95839.50
2023-04-24T01:03:12.196Z,95848.19
2023-04-24T01:05:38.750Z,95846.16
2023-04-24T01:08:05.166Z,95833.03
2023-04-24T01:10:34.130Z,95833.63
2023-04-24T01:13:01.131Z,95840.69
2023-04-24T01:15:27.580Z,95836.06
2023-04-24T01:17:54.063Z,95834.25
2023-04-24T01:20:22.017Z,95832.44
2023-04-24T01:22:48.736Z,95833.44
2023-04-24T01:25:15.230Z,95831.22
2023-04-24T01:27:41.644Z,95833.25
2023-04-24T01:30:08.493Z,95838.84
2023-04-24T01:32:35.624Z,95830.94
2023-04-24T01:35:02.788Z,95829.09
2023-04-24T01:37:29.238Z,95826.31
2023-04-24T01:39:55.657Z,95821.47
2023-04-24T01:42:22.501Z,95824.31
2023-04-24T01:44:49.052Z,95827.13
2023-04-24T01:47:15.696Z,95824.97
2023-04-24T01:49:42.381Z,95814.66
2023-04-24T01:52:09.113Z,95813.81
2023-04-24T01:54:36.691Z,95813.44
2023-04-24T01:57:03.724Z,95821.09
2023-04-24T01:59:30.981Z,95814.75
2023-04-24T02:01:57.436Z,95818.97
2023-04-24T02:04:23.991Z,95816.50
2023-04-24T02:06:50.512Z,95825.38
2023-04-24T02:09:17.230Z,95824.44
2023-04-24T02:11:43.611Z,95821.13
2023-04-24T02:14:10.002Z,95827.66
2023-04-24T02:16:36.950Z,95827.50
2023-04-24T02:19:04.044Z,95825.06
2023-04-24T02:21:31.741Z,95821.66
2023-04-24T02:23:58.242Z,95814.81
2023-04-24T02:26:24.709Z,95819.84
2023-04-24T02:28:51.151Z,95820.63
2023-04-24T02:31:17.519Z,95824.47
2023-04-24T02:33:43.952Z,95816.97
2023-04-24T02:36:10.433Z,95808.09
2023-04-24T02:38:37.853Z,95807.88
2023-04-24T02:41:07.206Z,95808.00
2023-04-24T02:43:34.763Z,95801.88
2023-04-24T02:46:01.271Z,95812.34
2023-04-24T02:48:28.036Z,95817.41
2023-04-24T02:50:54.523Z,95815.41
2023-04-24T02:53:21.096Z,95808.72
2023-04-24T02:55:49.573Z,95802.31
2023-04-24T02:58:16.731Z,95812.81
2023-04-24T03:00:44.392Z,95805.38
2023-04-24T03:03:11.021Z,95800.72
2023-04-24T03:05:37.685Z,95791.41
2023-04-24T03:08:04.503Z,95795.47
2023-04-24T03:10:33.232Z,95791.84
2023-04-24T03:12:59.659Z,95787.34
2023-04-24T03:15:26.057Z,95782.28
2023-04-24T03:17:53.731Z,95785.13
2023-04-24T03:20:22.181Z,95779.66
2023-04-24T03:22:48.930Z,95779.00
2023-04-24T03:25:15.503Z,95779.22
2023-04-24T03:27:42.551Z,95772.13
2023-04-24T03:30:09.328Z,95782.41
2023-04-24T03:32:35.954Z,95775.59
2023-04-24T03:35:02.433Z,95777.81
2023-04-24T03:37:28.863Z,95781.56
2023-04-24T03:39:55.345Z,95778.56
2023-04-24T03:42:21.728Z,95772.16
2023-04-24T03:44:48.178Z,95783.28
2023-04-24T03:47:14.616Z,95788.06
2023-04-24T03:49:41.233Z,95782.28
2023-04-24T03:52:07.785Z,95785.13
2023-04-24T03:54:34.250Z,95778.88
2023-04-24T03:57:01.061Z,95787.63
2023-04-24T03:59:27.479Z,95798.22
2023-04-24T04:01:54.334Z,95804.94
2023-04-24T04:04:20.884Z,95796.19
2023-04-24T04:06:47.633Z,95802.25
2023-04-24T04:09:14.410Z,95802.97
2023-04-24T04:11:40.922Z,95801.22
2023-04-24T04:14:07.343Z,95802.97
2023-04-24T04:16:33.762Z,95793.91
2023-04-24T04:19:00.378Z,95808.53
2023-04-24T04:21:27.604Z,95801.28
2023-04-24T04:23:54.037Z,95795.69
2023-04-24T04:26:22.153Z,95803.00
2023-04-24T04:28:50.025Z,95807.28
2023-04-24T04:31:16.475Z,95799.66
2023-04-24T04:33:42.964Z,95800.28
2023-04-24T04:36:10.004Z,95809.53
2023-04-24T04:38:38.113Z,95801.81
2023-04-24T04:41:04.701Z,95801.66
2023-04-24T04:43:31.981Z,95796.19
2023-04-24T04:45:59.172Z,95799.53
2023-04-24T04:48:25.576Z,95804.44
2023-04-24T04:50:52.016Z,95806.63
2023-04-24T04:53:18.424Z,95801.59
2023-04-24T04:55:44.907Z,95802.47
2023-04-24T04:58:11.338Z,95794.97
2023-04-24T05:00:38.636Z,95797.19
2023-04-24T05:03:19.174Z,95801.19
2023-04-24T05:05:47.495Z,95804.44
2023-04-24T05:08:25.713Z,95803.25
2023-04-24T05:10:53.864Z,95808.91
2023-04-24T05:13:28.226Z,95811.16
2023-04-24T05:15:58.658Z,95817.44
2023-04-24T05:18:25.025Z,95821.28
2023-04-24T05:20:51.456Z,95822.47
2023-04-24T05:23:17.844Z,95816.47
2023-04-24T05:25:44.315Z,95812.22
2023-04-24T05:28:11.002Z,95820.53
2023-04-24T05:30:37.398Z,95830.13
2023-04-24T05:33:03.863Z,95837.47
2023-04-24T05:35:30.398Z,95831.47
2023-04-24T05:37:58.071Z,95824.19
2023-04-24T05:40:24.542Z,95824.66
2023-04-24T05:42:51.045Z,95829.47
2023-04-24T05:45:17.802Z,95832.09
2023-04-24T05:47:47.899Z,95832.13
2023-04-24T05:50:14.827Z,95822.50
2023-04-24T05:52:41.249Z,95825.56
2023-04-24T05:55:08.667Z,95826.00
2023-04-24T05:57:35.124Z,95821.75
2023-04-24T06:00:01.610Z,95837.13
2023-04-24T06:02:28.882Z,95832.09
2023-04-24T06:04:56.597Z,95834.94
2023-04-24T06:07:23.112Z,95832.50
2023-04-24T06:09:49.528Z,95837.75
2023-04-24T06:12:16.164Z,95843.22
2023-04-24T06:14:45.731Z,95835.31
2023-04-24T06:17:12.164Z,95831.63
2023-04-24T06:19:39.764Z,95837.31
2023-04-24T06:22:06.176Z,95841.78
2023-04-24T06:24:32.697Z,95840.97
2023-04-24T06:27:02.332Z,95840.75
2023-04-24T06:29:28.746Z,95838.34
2023-04-24T06:31:55.144Z,95836.91
2023-04-24T06:34:21.548Z,95833.09
2023-04-24T06:36:50.750Z,95831.66
2023-04-24T06:39:22.263Z,95838.88
2023-04-24T06:41:48.695Z,95838.09
2023-04-24T06:44:15.770Z,95834.44
2023-04-24T06:46:42.515Z,95839.00
2023-04-24T06:49:08.953Z,95837.31
2023-04-24T06:51:35.516Z,95844.81
2023-04-24T06:54:02.846Z,95833.97
2023-04-24T06:56:30.482Z,95830.56
2023-04-24T06:58:57.005Z,95827.97
2023-04-24T07:01:23.607Z,95833.06
2023-04-24T07:03:50.164Z,95832.00
2023-04-24T07:06:19.660Z,95840.47
2023-04-24T07:08:46.211Z,95832.03
2023-04-24T07:11:12.608Z,95830.34
2023-04-24T07:13:42.828Z,95833.25
2023-04-24T07:16:09.845Z,95825.84
2023-04-24T07:18:37.516Z,95836.97
2023-04-24T07:21:04.547Z,95832.94
2023-04-24T07:23:31.724Z,95839.31
2023-04-24T07:25:58.623Z,95837.63
2023-04-24T07:28:25.661Z,95825.84
2023-04-24T07:30:54.926Z,95826.88
2023-04-24T07:33:21.519Z,95831.03
2023-04-24T07:35:49.186Z,95828.69
2023-04-24T07:38:15.778Z,95826.22
2023-04-24T07:40:42.179Z,95829.59
2023-04-24T07:43:09.299Z,95828.97
2023-04-24T07:45:38.376Z,95831.78
2023-04-24T07:48:05.234Z,95839.00
2023-04-24T07:50:31.961Z,95837.88
2023-04-24T07:52:58.458Z,95848.47
2023-04-24T07:55:32.280Z,95859.88
2023-04-24T07:57:58.986Z,95852.97
2023-04-24T08:00:26.374Z,95874.88
2023-04-24T08:02:52.901Z,95872.00
2023-04-24T08:05:19.426Z,95873.69
2023-04-24T08:07:47.520Z,95872.16
2023-04-24T08:10:14.552Z,95883.81
2023-04-24T08:12:41.348Z,95879.31
2023-04-24T08:15:07.987Z,95881.94
2023-04-24T08:17:35.536Z,95886.94
2023-04-24T08:20:02.882Z,95888.91
2023-04-24T08:22:29.728Z,95890.03
2023-04-24T08:24:58.111Z,95888.50
2023-04-24T08:27:24.837Z,95881.19
2023-04-24T08:29:53.964Z,95882.84
2023-04-24T08:32:20.482Z,95880.00
2023-04-24T08:34:49.434Z,95882.13
2023-04-24T08:37:16.160Z,95883.09
2023-04-24T08:39:42.804Z,95876.03
2023-04-24T08:42:09.578Z,95868.66
2023-04-24T08:44:36.766Z,95869.84
2023-04-24T08:47:03.511Z,95873.59
2023-04-24T08:49:30.169Z,95869.91
2023-04-24T08:51:56.662Z,95869.69
2023-04-24T08:54:23.062Z,95874.31
2023-04-24T08:56:49.805Z,95878.41
2023-04-24T08:59:16.828Z,95884.22
2023-04-24T09:01:44.063Z,95888.13
2023-04-24T09:04:12.021Z,95892.97
2023-04-24T09:06:39.360Z,95893.25
2023-04-24T09:09:06.474Z,95905.16
2023-04-24T09:11:35.837Z,95904.22
2023-04-24T09:14:02.439Z,95900.97
2023-04-24T09:16:30.794Z,95906.22
2023-04-24T09:18:57.244Z,95892.75
2023-04-24T09:21:24.310Z,95916.75
2023-04-24T09:24:01.430Z,95926.34
2023-04-24T09:26:30.214Z,95916.25
2023-04-24T09:28:56.748Z,95916.84
2023-04-24T09:31:23.761Z,95921.84
2023-04-24T09:33:58.425Z,95916.53
2023-04-24T09:36:28.985Z,95911.75
2023-04-24T09:38:58.632Z,95895.94
2023-04-24T09:41:25.012Z,95910.50
2023-04-24T09:43:51.407Z,95918.50
2023-04-24T09:46:19.491Z,95920.47
2023-04-24T09:48:46.132Z,95919.75
2023-04-24T09:51:13.372Z,95914.97
2023-04-24T09:53:42.903Z,95914.72
2023-04-24T09:56:10.160Z,95928.94
2023-04-24T09:58:37.465Z,95922.84
2023-04-24T10:01:04.386Z,95922.34
2023-04-24T10:03:31.680Z,95919.19
2023-04-24T10:06:01.548Z,95917.63
2023-04-24T10:08:33.890Z,95919.63
2023-04-24T10:11:00.701Z,95910.03
2023-04-24T10:13:27.067Z,95918.16
2023-04-24T10:15:53.888Z,95920.84
2023-04-24T10:18:22.110Z,95923.38
2023-04-24T10:20:55.863Z,95928.78
2023-04-24T10:23:22.835Z,95945.53
2023-04-24T10:25:50.701Z,95940.91
2023-04-24T10:28:18.970Z,95938.78
2023-04-24T10:30:46.434Z,95941.50
2023-04-24T10:33:14.749Z,95937.91
2023-04-24T10:35:46.567Z,95938.06
2023-04-24T10:38:14.066Z,95940.16
2023-04-24T10:40:40.927Z,95954.66
2023-04-24T10:43:10.550Z,95947.78
2023-04-24T10:45:38.874Z,95952.41
2023-04-24T10:48:08.293Z,95943.47
2023-04-24T10:50:43.811Z,95939.38
2023-04-24T10:53:14.489Z,95946.94
2023-04-24T10:55:45.431Z,95939.06
2023-04-24T10:58:12.811Z,95932.03
2023-04-24T11:00:42.121Z,95939.59
2023-04-24T11:03:23.474Z,95933.16
2023-04-24T11:05:54.535Z,95936.84
2023-04-24T11:08:28.886Z,95941.91
2023-04-24T11:11:03.577Z,95942.72
2023-04-24T11:13:49.284Z,95936.53
2023-04-24T11:16:16.898Z,95948.59
2023-04-24T11:18:46.941Z,95932.94
2023-04-24T11:21:13.999Z,95930.88
2023-04-24T11:23:41.833Z,95932.16
2023-04-24T11:26:12.290Z,95928.78
2023-04-24T11:28:44.840Z,95932.88
2023-04-24T11:31:30.300Z,95923.78
2023-04-24T11:33:57.264Z,95939.69
2023-04-24T11:36:23.716Z,95938.25
2023-04-24T11:38:50.208Z,95928.22
2023-04-24T11:41:16.647Z,95933.25
2023-04-24T11:43:44.453Z,95939.84
2023-04-24T11:46:12.004Z,95942.25
2023-04-24T11:48:41.063Z,95947.00
2023-04-24T11:51:07.973Z,95946.44
2023-04-24T11:53:34.429Z,95954.03
2023-04-24T11:56:03.829Z,95967.50
2023-04-24T11:58:35.557Z,95970.56
2023-04-24T12:01:02.370Z,95972.88
2023-04-24T12:03:29.001Z,95975.00
2023-04-24T12:06:11.300Z,95983.31
2023-04-24T12:08:38.790Z,95991.94
2023-04-24T12:11:08.102Z,95995.00
2023-04-24T12:13:34.746Z,96005.88
2023-04-24T12:16:02.968Z,96000.28
2023-04-24T12:18:29.413Z,96006.09
2023-04-24T12:21:01.256Z,95993.09
2023-04-24T12:23:37.085Z,95994.91
2023-04-24T12:26:06.584Z,95997.03
2023-04-24T12:28:37.982Z,95993.00
2023-04-24T12:31:04.635Z,95993.59
2023-04-24T12:33:36.271Z,95987.13
2023-04-24T12:36:02.766Z,95981.84
2023-04-24T12:38:41.014Z,95987.25
2023-04-24T12:41:11.107Z,95983.22
2023-04-24T12:43:38.245Z,95986.63
2023-04-24T12:46:05.907Z,95982.53
2023-04-24T12:48:32.501Z,95994.88
2023-04-24T12:51:02.212Z,95999.47
2023-04-24T12:53:30.425Z,95996.22
2023-04-24T12:55:57.468Z,96005.34
2023-04-24T12:58:23.938Z,96009.00
2023-04-24T13:00:50.476Z,96017.00
2023-04-24T13:03:17.090Z,96020.41
2023-04-24T13:05:44.018Z,96025.09
2023-04-24T13:08:10.811Z,96022.03
2023-04-24T13:10:37.211Z,96022.72
2023-04-24T13:13:04.454Z,96014.97
2023-04-24T13:15:30.978Z,96018.59
2023-04-24T13:17:57.497Z,96023.09
2023-04-24T13:20:23.964Z,96015.75
2023-04-24T13:22:50.557Z,96017.31
2023-04-24T13:25:18.213Z,96017.16
2023-04-24T13:27:44.892Z,96013.91
2023-04-24T13:30:11.780Z,96021.63
2023-04-24T13:32:38.258Z,96017.22
2023-04-24T13:35:05.121Z,96012.81
2023-04-24T13:37:31.548Z,96007.41
2023-04-24T13:39:57.975Z,96015.78
2023-04-24T13:42:24.398Z,96010.44
2023-04-24T13:44:52.155Z,96005.34
2023-04-24T13:47:18.689Z,95999.97
2023-04-24T13:49:45.120Z,96001.84
2023-04-24T13:52:11.738Z,96007.53
2023-04-24T13:54:38.154Z,96016.50
2023-04-24T13:57:04.617Z,96018.25
2023-04-24T13:59:31.079Z,96016.28
2023-04-24T14:01:57.578Z,96017.53
2023-04-24T14:04:24.283Z,96008.53
2023-04-24T14:06:51.476Z,96018.06
2023-04-24T14:09:17.907Z,96011.28
2023-04-24T14:11:44.467Z,96005.69
2023-04-24T14:14:11.401Z,96012.59
2023-04-24T14:16:37.907Z,96009.81
2023-04-24T14:19:05.949Z,96015.00
2023-04-24T14:21:32.361Z,96013.72
2023-04-24T14:23:58.794Z,96010.81
2023-04-24T14:26:25.962Z,96011.53
2023-04-24T14:28:55.798Z,95996.44
2023-04-24T14:31:24.616Z,96008.25
2023-04-24T14:33:51.109Z,95995.63
2023-04-24T14:36:17.748Z,96000.91
2023-04-24T14:38:44.174Z,95998.00
2023-04-24T14:41:14.259Z,96004.22
2023-04-24T14:43:41.330Z,96007.00
2023-04-24T14:46:07.871Z,95999.00
2023-04-24T14:48:34.246Z,96012.41
2023-04-24T14:51:00.686Z,96004.34
2023-04-24T14:53:27.138Z,96016.63
2023-04-24T14:55:53.714Z,96007.84
2023-04-24T14:58:20.152Z,96019.53
2023-04-24T15:00:47.820Z,96019.25
2023-04-24T15:03:16.581Z,96024.53
2023-04-24T15:05:43.145Z,96020.13
2023-04-24T15:08:09.570Z,96007.88
2023-04-24T15:10:36.153Z,96018.81
2023-04-24T15:13:02.661Z,96008.38
2023-04-24T15:15:30.128Z,96012.19
2023-04-24T15:17:56.656Z,96012.44
2023-04-24T15:20:24.122Z,96017.03
2023-04-24T15:22:50.583Z,96012.44
2023-04-24T15:25:17.088Z,96010.94
2023-04-24T15:27:50.961Z,96013.63
2023-04-24T15:30:17.411Z,96012.59
2023-04-24T15:32:43.816Z,96020.09
2023-04-24T15:35:11.530Z,96015.19
2023-04-24T15:40:14.187Z,96013.34
2023-04-24T15:42:41.142Z,96029.44
2023-04-24T15:45:07.792Z,96027.75
2023-04-24T15:47:35.025Z,96025.09
2023-04-24T15:50:22.838Z,96037.03
2023-04-24T15:53:01.590Z,96032.22
2023-04-24T15:55:28.339Z,96033.03
2023-04-24T15:57:54.950Z,96046.41
2023-04-24T16:00:21.955Z,96044.78
2023-04-24T16:02:50.495Z,96042.94
2023-04-24T16:05:17.505Z,96061.09
2023-04-24T16:07:43.887Z,96057.31
2023-04-24T16:10:10.730Z,96059.91
2023-04-24T16:12:37.227Z,96057.53
2023-04-24T16:15:04.016Z,96058.13
2023-04-24T16:17:30.544Z,96076.19
2023-04-24T16:19:56.961Z,96070.09
2023-04-24T16:22:23.691Z,96071.31
2023-04-24T16:24:50.103Z,96065.00
2023-04-24T16:27:16.532Z,96068.88
2023-04-24T16:29:43.015Z,96071.31
2023-04-24T16:32:09.629Z,96070.09
2023-04-24T16:34:36.083Z,96061.63
2023-04-24T16:37:02.495Z,96066.50
2023-04-24T16:39:28.942Z,96071.97
2023-04-24T16:41:56.715Z,96065.28
2023-04-24T16:44:24.852Z,96066.50
2023-04-24T16:46:51.658Z,96057.97
2023-04-24T16:49:18.098Z,96061.03
2023-04-24T16:51:44.539Z,96066.50
2023-04-24T16:54:10.990Z,96070.75
2023-04-24T16:56:37.461Z,96070.53
2023-04-24T16:59:03.859Z,96071.75
2023-04-24T17:01:30.365Z,96103.16
2023-04-24T17:03:57.005Z,96111.03
2023-04-24T17:06:23.644Z,96138.28
2023-04-24T17:08:50.167Z,96135.09
2023-04-24T17:11:16.807Z,96136.88
2023-04-24T17:13:43.258Z,96134.88
2023-04-24T17:16:09.720Z,96132.97
2023-04-24T17:18:36.262Z,96131.28
2023-04-24T17:21:02.693Z,96127.16
2023-04-24T17:23:29.112Z,96127.38
2023-04-24T17:25:55.705Z,96127.16
2023-04-24T17:28:26.957Z,96123.00
2023-04-24T17:30:55.587Z,96119.34
2023-04-24T17:33:21.994Z,96119.44
2023-04-24T17:35:49.046Z,96132.81
2023-04-24T17:38:15.506Z,96126.38
2023-04-24T17:40:41.912Z,96133.59
2023-04-24T17:43:08.355Z,96139.97
2023-04-24T17:45:34.762Z,96138.09
2023-04-24T17:48:01.579Z,96137.69
2023-04-24T17:50:28.350Z,96141.72
2023-04-24T17:52:54.730Z,96137.19
2023-04-24T17:55:21.526Z,96139.22
2023-04-24T17:57:48.089Z,96146.19
2023-04-24T18:00:14.799Z,96148.50
2023-04-24T18:02:42.360Z,96160.25
2023-04-24T18:05:08.869Z,96152.38
2023-04-24T18:07:36.675Z,96156.16
2023-04-24T18:10:03.695Z,96155.03
2023-04-24T18:12:30.137Z,96154.50
2023-04-24T18:15:10.407Z,96151.75
2023-04-24T18:17:40.838Z,96154.72
2023-04-24T18:20:07.520Z,96157.38
2023-04-24T18:22:33.912Z,96166.53
2023-04-24T18:25:00.336Z,96172.88
2023-04-24T18:27:29.257Z,96166.94
2023-04-24T18:29:56.420Z,96171.44
2023-04-24T18:32:22.989Z,96178.78
2023-04-24T18:34:49.497Z,96187.28
2023-04-24T18:37:15.996Z,96182.75
2023-04-24T18:39:42.499Z,96185.91
2023-04-24T18:42:09.003Z,96192.19
2023-04-24T18:44:35.555Z,96181.84
2023-04-24T18:47:02.548Z,96187.25
2023-04-24T18:49:28.974Z,96189.53
2023-04-24T18:51:55.346Z,96190.31
2023-04-24T18:54:21.804Z,96194.78
2023-04-24T18:56:48.459Z,96190.56
2023-04-24T18:59:14.829Z,96202.31
2023-04-24T19:01:41.594Z,96197.94
2023-04-24T19:04:08.129Z,96204.34
2023-04-24T19:06:34.538Z,96204.00
2023-04-24T19:09:01.110Z,96213.31
2023-04-24T19:11:27.624Z,96213.41
2023-04-24T19:13:54.266Z,96214.66
2023-04-24T19:16:20.779Z,96222.34
2023-04-24T19:18:47.417Z,96224.72
2023-04-24T19:21:14.430Z,96222.63
2023-04-24T19:23:41.969Z,96224.34
2023-04-24T19:26:08.538Z,96227.84
2023-04-24T19:28:35.674Z,96221.97
2023-04-24T19:31:03.848Z,96230.19
2023-04-24T19:33:30.271Z,96227.78
2023-04-24T19:35:56.719Z,96235.88
2023-04-24T19:38:23.220Z,96235.50
2023-04-24T19:40:49.964Z,96244.84
2023-04-24T19:43:16.345Z,96246.38
2023-04-24T19:45:42.807Z,96248.56
2023-04-24T19:48:09.314Z,96245.09
2023-04-24T19:50:35.755Z,96235.19
2023-04-24T19:53:02.127Z,96234.78
2023-04-24T19:55:28.660Z,96231.00
2023-04-24T19:57:55.601Z,96238.69
2023-04-24T20:00:22.082Z,96237.50
2023-04-24T20:02:48.593Z,96234.41
2023-04-24T20:05:15.313Z,96230.28
2023-04-24T20:07:41.778Z,96227.34
2023-04-24T20:10:08.474Z,96231.50
2023-04-24T20:12:36.758Z,96231.00
2023-04-24T20:15:06.242Z,96231.28
2023-04-24T20:17:32.634Z,96237.78
2023-04-24T20:19:59.112Z,96240.69
2023-04-24T20:22:26.579Z,96241.97
2023-04-24T20:24:53.033Z,96237.78
2023-04-24T20:27:20.268Z,96240.16
2023-04-24T20:29:46.942Z,96243.16
2023-04-24T20:32:13.881Z,96259.06
2023-04-24T20:34:40.566Z,96249.53
2023-04-24T20:37:07.115Z,96248.13
2023-04-24T20:39:33.545Z,96248.25
2023-04-24T20:41:59.971Z,96249.13
2023-04-24T20:44:26.390Z,96250.28
2023-04-24T20:46:52.821Z,96257.03
2023-04-24T20:49:19.230Z,96240.03
2023-04-24T20:51:45.828Z,96248.50
2023-04-24T20:54:12.245Z,96253.00
2023-04-24T20:56:38.905Z,96250.63
2023-04-24T20:59:05.323Z,96249.47
2023-04-24T21:01:31.857Z,96248.91
2023-04-24T21:03:58.369Z,96247.84
2023-04-24T21:06:24.813Z,96244.59
2023-04-24T21:08:51.264Z,96239.69
2023-04-24T21:11:17.683Z,96239.16
2023-04-24T21:13:44.079Z,96233.00
2023-04-24T21:16:10.482Z,96228.94
2023-04-24T21:18:41.087Z,96223.31
2023-04-24T21:21:08.928Z,96220.09
2023-04-24T21:23:36.196Z,96225.69
2023-04-24T21:26:03.331Z,96224.09
2023-04-24T21:28:30.409Z,96226.06
2023-04-24T21:30:56.844Z,96230.69
2023-04-24T21:33:23.248Z,96219.72
2023-04-24T21:35:49.736Z,96217.81
2023-04-24T21:38:21.385Z,96215.75
2023-04-24T21:40:47.880Z,96219.50
2023-04-24T21:43:14.299Z,96225.88
2023-04-24T21:45:40.755Z,96222.13
2023-04-24T21:48:07.215Z,96216.28
2023-04-24T21:50:33.648Z,96217.41
2023-04-24T21:53:00.110Z,96215.31
2023-04-24T21:55:27.088Z,96212.69
2023-04-24T21:57:53.642Z,96214.31
2023-04-24T22:00:20.085Z,96212.69
2023-04-24T22:02:46.580Z,96212.69
2023-04-24T22:05:15.867Z,96213.69
2023-04-24T22:07:45.031Z,96221.66
2023-04-24T22:10:13.082Z,96218.06
2023-04-24T22:12:41.465Z,96211.56
2023-04-24T22:15:08.608Z,96212.72
2023-04-24T22:17:35.206Z,96206.69
2023-04-24T22:20:01.745Z,96203.09
2023-04-24T22:22:28.586Z,96195.28
2023-04-24T22:24:55.696Z,96191.19
2023-04-24T22:27:22.084Z,96192.97
2023-04-24T22:29:48.514Z,96200.16
2023-04-24T22:32:14.884Z,96193.50
2023-04-24T22:34:41.305Z,96187.59
2023-04-24T22:37:08.117Z,96189.72
2023-04-24T22:39:34.535Z,96183.03
2023-04-24T22:42:01.992Z,96187.59
2023-04-24T22:44:28.453Z,96179.13
2023-04-24T22:46:54.842Z,96187.28
2023-04-24T22:49:22.274Z,96185.81
2023-04-24T22:51:48.780Z,96184.84
2023-04-24T22:54:15.195Z,96185.81
2023-04-24T22:56:41.708Z,96188.72
2023-04-24T22:59:08.110Z,96190.03
2023-04-24T23:01:34.523Z,96191.00
2023-04-24T23:04:00.966Z,96183.03
2023-04-24T23:06:28.086Z,96186.13
2023-04-24T23:08:54.435Z,96193.31
2023-04-24T23:11:21.969Z,96182.03
2023-04-24T23:13:49.590Z,96174.41
2023-04-24T23:16:16.313Z,96180.91
2023-04-24T23:18:42.751Z,96175.88
2023-04-24T23:21:09.178Z,96175.53
2023-04-24T23:23:35.673Z,96168.84
2023-04-24T23:26:02.145Z,96174.41
2023-04-24T23:28:28.562Z,96172.09
2023-04-24T23:30:55.052Z,96166.56
2023-04-24T23:33:22.309Z,96174.72
2023-04-24T23:35:48.705Z,96160.84
2023-04-24T23:38:16.249Z,96163.78
2023-04-24T23:40:42.852Z,96155.47
2023-04-24T23:43:09.259Z,96150.91
2023-04-24T23:45:36.911Z,96156.44
2023-04-24T23:48:04.603Z,96159.22
2023-04-24T23:50:31.188Z,96156.44
2023-04-24T23:52:57.643Z,96157.13
2023-04-24T23:55:24.048Z,96153.84
2023-04-24T23:57:50.444Z,96158.22
